sensor_id;sensor_type;location;lat;lon;timestamp;P1;durP1;ratioP1;P2;durP2;ratioP2
49858;SDS011;35756;52.346;13.622;2022-10-16T00:01:29;8.80;;;4.93;;
49858;SDS011;35756;52.346;13.622;2022-10-16T00:03:55;10.05;;;5.45;;
49858;SDS011;35756;52.346;13.622;2022-10-16T00:06:22;7.15;;;5.10;;
49858;SDS011;35756;52.346;13.622;2022-10-16T00:08:48;6.38;;;4.65;;
49858;SDS011;35756;52.346;13.622;2022-10-16T00:11:18;6.85;;;4.60;;
49858;SDS011;35756;52.346;13.622;2022-10-16T00:13:46;5.55;;;4.25;;
49858;SDS011;35756;52.346;13.622;2022-10-16T00:16:13;6.35;;;4.53;;
49858;SDS011;35756;52.346;13.622;2022-10-16T00:18:38;6.35;;;4.72;;
49858;SDS011;35756;52.346;13.622;2022-10-16T00:21:05;6.32;;;4.38;;
49858;SDS011;35756;52.346;13.622;2022-10-16T00:23:33;6.75;;;4.55;;
49858;SDS011;35756;52.346;13.622;2022-10-16T00:25:59;7.15;;;4.22;;
49858;SDS011;35756;52.346;13.622;2022-10-16T00:28:26;5.75;;;3.95;;
49858;SDS011;35756;52.346;13.622;2022-10-16T00:30:52;7.07;;;4.53;;
49858;SDS011;35756;52.346;13.622;2022-10-16T00:33:17;6.65;;;4.57;;
49858;SDS011;35756;52.346;13.622;2022-10-16T00:35:43;6.20;;;4.10;;
49858;SDS011;35756;52.346;13.622;2022-10-16T00:38:08;6.47;;;4.15;;
49858;SDS011;35756;52.346;13.622;2022-10-16T00:40:34;5.13;;;3.85;;
49858;SDS011;35756;52.346;13.622;2022-10-16T00:42:59;5.75;;;3.85;;
49858;SDS011;35756;52.346;13.622;2022-10-16T00:45:24;5.63;;;3.67;;
49858;SDS011;35756;52.346;13.622;2022-10-16T00:47:50;6.25;;;3.70;;
49858;SDS011;35756;52.346;13.622;2022-10-16T00:50:29;5.55;;;3.90;;
49858;SDS011;35756;52.346;13.622;2022-10-16T00:52:57;5.63;;;3.85;;
49858;SDS011;35756;52.346;13.622;2022-10-16T00:55:23;5.75;;;3.90;;
49858;SDS011;35756;52.346;13.622;2022-10-16T00:57:49;8.43;;;3.90;;
49858;SDS011;35756;52.346;13.622;2022-10-16T01:00:19;6.95;;;3.75;;
49858;SDS011;35756;52.346;13.622;2022-10-16T01:02:53;4.93;;;3.50;;
49858;SDS011;35756;52.346;13.622;2022-10-16T01:05:23;5.18;;;3.72;;
49858;SDS011;35756;52.346;13.622;2022-10-16T01:08:08;4.53;;;2.95;;
49858;SDS011;35756;52.346;13.622;2022-10-16T01:10:46;4.43;;;3.07;;
49858;SDS011;35756;52.346;13.622;2022-10-16T01:13:21;4.20;;;3.03;;
49858;SDS011;35756;52.346;13.622;2022-10-16T01:18:43;4.65;;;3.33;;
49858;SDS011;35756;52.346;13.622;2022-10-16T01:21:11;6.35;;;3.22;;
49858;SDS011;35756;52.346;13.622;2022-10-16T01:23:43;5.72;;;2.85;;
49858;SDS011;35756;52.346;13.622;2022-10-16T01:26:29;4.40;;;3.10;;
49858;SDS011;35756;52.346;13.622;2022-10-16T01:31:40;3.88;;;2.80;;
49858;SDS011;35756;52.346;13.622;2022-10-16T01:34:14;4.22;;;2.95;;
49858;SDS011;35756;52.346;13.622;2022-10-16T01:36:42;3.67;;;2.65;;
49858;SDS011;35756;52.346;13.622;2022-10-16T01:39:11;3.88;;;2.85;;
49858;SDS011;35756;52.346;13.622;2022-10-16T01:41:44;4.28;;;2.85;;
49858;SDS011;35756;52.346;13.622;2022-10-16T01:44:14;6.65;;;2.70;;
49858;SDS011;35756;52.346;13.622;2022-10-16T01:46:43;5.78;;;2.90;;
49858;SDS011;35756;52.346;13.622;2022-10-16T01:49:09;4.28;;;2.67;;
49858;SDS011;35756;52.346;13.622;2022-10-16T01:51:35;5.00;;;2.83;;
49858;SDS011;35756;52.346;13.622;2022-10-16T01:54:02;3.90;;;2.42;;
49858;SDS011;35756;52.346;13.622;2022-10-16T01:56:29;3.65;;;2.40;;
49858;SDS011;35756;52.346;13.622;2022-10-16T01:58:57;3.20;;;2.42;;
49858;SDS011;35756;52.346;13.622;2022-10-16T02:01:26;4.18;;;2.78;;
49858;SDS011;35756;52.346;13.622;2022-10-16T02:03:52;4.15;;;2.72;;
49858;SDS011;35756;52.346;13.622;2022-10-16T02:06:19;3.88;;;2.47;;
49858;SDS011;35756;52.346;13.622;2022-10-16T02:08:44;4.75;;;2.58;;
49858;SDS011;35756;52.346;13.622;2022-10-16T02:11:10;3.20;;;2.47;;
49858;SDS011;35756;52.346;13.622;2022-10-16T02:13:37;3.60;;;2.42;;
49858;SDS011;35756;52.346;13.622;2022-10-16T02:16:05;3.38;;;2.35;;
49858;SDS011;35756;52.346;13.622;2022-10-16T02:18:31;4.30;;;2.28;;
49858;SDS011;35756;52.346;13.622;2022-10-16T02:26:35;3.45;;;2.30;;
49858;SDS011;35756;52.346;13.622;2022-10-16T02:29:07;4.03;;;2.40;;
49858;SDS011;35756;52.346;13.622;2022-10-16T02:31:38;2.97;;;2.13;;
49858;SDS011;35756;52.346;13.622;2022-10-16T02:34:06;3.75;;;2.58;;
49858;SDS011;35756;52.346;13.622;2022-10-16T02:36:33;2.90;;;2.17;;
49858;SDS011;35756;52.346;13.622;2022-10-16T02:38:59;2.83;;;2.38;;
49858;SDS011;35756;52.346;13.622;2022-10-16T02:41:26;3.05;;;2.20;;
49858;SDS011;35756;52.346;13.622;2022-10-16T02:43:51;4.55;;;2.55;;
49858;SDS011;35756;52.346;13.622;2022-10-16T02:46:16;4.80;;;2.20;;
49858;SDS011;35756;52.346;13.622;2022-10-16T02:48:42;3.38;;;2.38;;
49858;SDS011;35756;52.346;13.622;2022-10-16T02:51:08;2.90;;;2.10;;
49858;SDS011;35756;52.346;13.622;2022-10-16T02:53:33;3.55;;;2.13;;
49858;SDS011;35756;52.346;13.622;2022-10-16T02:55:58;3.67;;;2.58;;
49858;SDS011;35756;52.346;13.622;2022-10-16T02:58:23;3.33;;;2.42;;
49858;SDS011;35756;52.346;13.622;2022-10-16T03:00:49;2.88;;;2.15;;
49858;SDS011;35756;52.346;13.622;2022-10-16T03:03:14;3.90;;;2.30;;
49858;SDS011;35756;52.346;13.622;2022-10-16T03:05:39;6.30;;;2.40;;
49858;SDS011;35756;52.346;13.622;2022-10-16T03:08:05;4.63;;;2.55;;
49858;SDS011;35756;52.346;13.622;2022-10-16T03:10:30;2.92;;;2.10;;
49858;SDS011;35756;52.346;13.622;2022-10-16T03:12:56;2.72;;;2.08;;
49858;SDS011;35756;52.346;13.622;2022-10-16T03:15:21;3.33;;;2.30;;
49858;SDS011;35756;52.346;13.622;2022-10-16T03:17:46;4.60;;;2.35;;
49858;SDS011;35756;52.346;13.622;2022-10-16T03:20:12;3.58;;;2.40;;
49858;SDS011;35756;52.346;13.622;2022-10-16T03:22:37;2.88;;;2.20;;
49858;SDS011;35756;52.346;13.622;2022-10-16T03:25:02;3.13;;;2.20;;
49858;SDS011;35756;52.346;13.622;2022-10-16T03:27:28;4.78;;;2.13;;
49858;SDS011;35756;52.346;13.622;2022-10-16T03:29:53;3.97;;;2.20;;
49858;SDS011;35756;52.346;13.622;2022-10-16T03:32:18;3.28;;;2.10;;
49858;SDS011;35756;52.346;13.622;2022-10-16T03:34:44;3.53;;;2.10;;
49858;SDS011;35756;52.346;13.622;2022-10-16T03:37:10;4.25;;;2.20;;
49858;SDS011;35756;52.346;13.622;2022-10-16T03:39:35;3.33;;;2.10;;
49858;SDS011;35756;52.346;13.622;2022-10-16T03:42:00;6.22;;;2.20;;
49858;SDS011;35756;52.346;13.622;2022-10-16T03:44:26;2.88;;;1.98;;
49858;SDS011;35756;52.346;13.622;2022-10-16T03:46:51;6.60;;;2.17;;
49858;SDS011;35756;52.346;13.622;2022-10-16T03:49:16;2.63;;;2.05;;
49858;SDS011;35756;52.346;13.622;2022-10-16T03:51:41;3.30;;;2.20;;
49858;SDS011;35756;52.346;13.622;2022-10-16T03:54:09;3.15;;;2.20;;
49858;SDS011;35756;52.346;13.622;2022-10-16T03:56:34;3.00;;;2.00;;
49858;SDS011;35756;52.346;13.622;2022-10-16T03:59:00;3.50;;;1.92;;
49858;SDS011;35756;52.346;13.622;2022-10-16T04:01:25;3.85;;;2.00;;
49858;SDS011;35756;52.346;13.622;2022-10-16T04:03:50;3.72;;;2.00;;
49858;SDS011;35756;52.346;13.622;2022-10-16T04:06:15;3.40;;;2.42;;
49858;SDS011;35756;52.346;13.622;2022-10-16T04:08:44;5.50;;;2.40;;
49858;SDS011;35756;52.346;13.622;2022-10-16T04:11:09;4.82;;;2.30;;
49858;SDS011;35756;52.346;13.622;2022-10-16T04:13:34;10.13;;;2.40;;
49858;SDS011;35756;52.346;13.622;2022-10-16T04:16:00;2.95;;;2.40;;
49858;SDS011;35756;52.346;13.622;2022-10-16T04:18:25;5.30;;;2.40;;
49858;SDS011;35756;52.346;13.622;2022-10-16T04:20:52;3.60;;;2.15;;
49858;SDS011;35756;52.346;13.622;2022-10-16T04:23:18;3.15;;;1.90;;
49858;SDS011;35756;52.346;13.622;2022-10-16T04:25:43;3.20;;;2.30;;
49858;SDS011;35756;52.346;13.622;2022-10-16T04:28:08;3.05;;;1.77;;
49858;SDS011;35756;52.346;13.622;2022-10-16T04:30:33;2.40;;;2.00;;
49858;SDS011;35756;52.346;13.622;2022-10-16T04:32:59;3.75;;;2.30;;
49858;SDS011;35756;52.346;13.622;2022-10-16T04:35:24;2.97;;;2.10;;
49858;SDS011;35756;52.346;13.622;2022-10-16T04:37:49;2.40;;;2.08;;
49858;SDS011;35756;52.346;13.622;2022-10-16T04:40:15;2.80;;;2.15;;
49858;SDS011;35756;52.346;13.622;2022-10-16T04:42:40;4.47;;;2.30;;
49858;SDS011;35756;52.346;13.622;2022-10-16T04:45:06;4.70;;;2.10;;
49858;SDS011;35756;52.346;13.622;2022-10-16T04:47:32;3.60;;;1.98;;
49858;SDS011;35756;52.346;13.622;2022-10-16T04:49:57;2.95;;;1.83;;
49858;SDS011;35756;52.346;13.622;2022-10-16T04:52:24;2.35;;;1.83;;
49858;SDS011;35756;52.346;13.622;2022-10-16T04:54:50;2.50;;;2.00;;
49858;SDS011;35756;52.346;13.622;2022-10-16T04:57:15;3.58;;;2.20;;
49858;SDS011;35756;52.346;13.622;2022-10-16T04:59:41;2.53;;;1.98;;
49858;SDS011;35756;52.346;13.622;2022-10-16T05:02:06;3.33;;;2.00;;
49858;SDS011;35756;52.346;13.622;2022-10-16T05:04:32;2.15;;;1.95;;
49858;SDS011;35756;52.346;13.622;2022-10-16T05:06:57;4.78;;;2.20;;
49858;SDS011;35756;52.346;13.622;2022-10-16T05:09:22;2.92;;;2.00;;
49858;SDS011;35756;52.346;13.622;2022-10-16T05:11:47;2.60;;;2.00;;
49858;SDS011;35756;52.346;13.622;2022-10-16T05:14:13;3.65;;;1.90;;
49858;SDS011;35756;52.346;13.622;2022-10-16T05:16:38;2.63;;;2.00;;
49858;SDS011;35756;52.346;13.622;2022-10-16T05:19:03;3.80;;;2.20;;
49858;SDS011;35756;52.346;13.622;2022-10-16T05:21:29;3.75;;;2.00;;
49858;SDS011;35756;52.346;13.622;2022-10-16T05:23:54;3.80;;;1.90;;
49858;SDS011;35756;52.346;13.622;2022-10-16T05:26:20;6.55;;;2.42;;
49858;SDS011;35756;52.346;13.622;2022-10-16T05:28:45;3.03;;;2.08;;
49858;SDS011;35756;52.346;13.622;2022-10-16T05:31:11;5.35;;;2.42;;
49858;SDS011;35756;52.346;13.622;2022-10-16T05:33:36;2.85;;;2.00;;
49858;SDS011;35756;52.346;13.622;2022-10-16T05:36:05;2.45;;;1.67;;
49858;SDS011;35756;52.346;13.622;2022-10-16T05:38:32;2.25;;;1.83;;
49858;SDS011;35756;52.346;13.622;2022-10-16T05:40:58;2.70;;;2.05;;
49858;SDS011;35756;52.346;13.622;2022-10-16T05:43:23;3.40;;;2.00;;
49858;SDS011;35756;52.346;13.622;2022-10-16T05:45:55;5.03;;;2.30;;
49858;SDS011;35756;52.346;13.622;2022-10-16T05:50:47;3.08;;;2.10;;
49858;SDS011;35756;52.346;13.622;2022-10-16T05:53:12;3.00;;;1.95;;
49858;SDS011;35756;52.346;13.622;2022-10-16T05:55:38;4.78;;;2.38;;
49858;SDS011;35756;52.346;13.622;2022-10-16T05:58:03;3.47;;;2.10;;
49858;SDS011;35756;52.346;13.622;2022-10-16T06:00:28;6.32;;;2.00;;
49858;SDS011;35756;52.346;13.622;2022-10-16T06:02:54;2.60;;;1.80;;
49858;SDS011;35756;52.346;13.622;2022-10-16T06:05:19;3.60;;;2.20;;
49858;SDS011;35756;52.346;13.622;2022-10-16T06:07:44;3.17;;;2.22;;
49858;SDS011;35756;52.346;13.622;2022-10-16T06:10:09;7.88;;;2.10;;
49858;SDS011;35756;52.346;13.622;2022-10-16T06:12:35;2.42;;;1.75;;
49858;SDS011;35756;52.346;13.622;2022-10-16T06:15:00;2.97;;;2.03;;
49858;SDS011;35756;52.346;13.622;2022-10-16T06:17:25;2.53;;;2.03;;
49858;SDS011;35756;52.346;13.622;2022-10-16T06:19:51;2.65;;;2.03;;
49858;SDS011;35756;52.346;13.622;2022-10-16T06:22:16;2.75;;;2.00;;
49858;SDS011;35756;52.346;13.622;2022-10-16T06:24:41;8.30;;;2.47;;
49858;SDS011;35756;52.346;13.622;2022-10-16T06:27:06;3.53;;;2.58;;
49858;SDS011;35756;52.346;13.622;2022-10-16T06:29:32;3.63;;;2.63;;
49858;SDS011;35756;52.346;13.622;2022-10-16T06:31:57;10.80;;;3.20;;
49858;SDS011;35756;52.346;13.622;2022-10-16T06:34:22;6.55;;;2.30;;
49858;SDS011;35756;52.346;13.622;2022-10-16T06:36:48;3.67;;;2.78;;
49858;SDS011;35756;52.346;13.622;2022-10-16T06:39:13;3.83;;;2.88;;
49858;SDS011;35756;52.346;13.622;2022-10-16T06:41:38;4.20;;;2.78;;
49858;SDS011;35756;52.346;13.622;2022-10-16T06:44:06;3.38;;;2.70;;
49858;SDS011;35756;52.346;13.622;2022-10-16T06:46:32;3.42;;;2.60;;
49858;SDS011;35756;52.346;13.622;2022-10-16T06:48:58;3.58;;;2.40;;
49858;SDS011;35756;52.346;13.622;2022-10-16T06:51:24;3.80;;;2.40;;
49858;SDS011;35756;52.346;13.622;2022-10-16T06:53:51;3.80;;;2.60;;
49858;SDS011;35756;52.346;13.622;2022-10-16T06:56:22;3.83;;;2.60;;
49858;SDS011;35756;52.346;13.622;2022-10-16T06:58:48;3.60;;;2.42;;
49858;SDS011;35756;52.346;13.622;2022-10-16T07:01:15;5.57;;;2.55;;
49858;SDS011;35756;52.346;13.622;2022-10-16T07:03:42;3.70;;;2.47;;
49858;SDS011;35756;52.346;13.622;2022-10-16T07:06:09;6.00;;;2.47;;
49858;SDS011;35756;52.346;13.622;2022-10-16T07:08:36;4.20;;;2.63;;
49858;SDS011;35756;52.346;13.622;2022-10-16T07:11:04;5.90;;;2.63;;
49858;SDS011;35756;52.346;13.622;2022-10-16T07:13:33;5.05;;;2.40;;
49858;SDS011;35756;52.346;13.622;2022-10-16T07:16:10;3.85;;;2.60;;
49858;SDS011;35756;52.346;13.622;2022-10-16T07:18:36;4.20;;;2.33;;
49858;SDS011;35756;52.346;13.622;2022-10-16T07:21:07;4.15;;;2.90;;
49858;SDS011;35756;52.346;13.622;2022-10-16T07:23:35;4.50;;;3.17;;
49858;SDS011;35756;52.346;13.622;2022-10-16T07:26:01;4.65;;;3.88;;
49858;SDS011;35756;52.346;13.622;2022-10-16T07:28:26;4.57;;;2.78;;
49858;SDS011;35756;52.346;13.622;2022-10-16T07:30:52;3.63;;;2.40;;
49858;SDS011;35756;52.346;13.622;2022-10-16T07:33:17;4.90;;;2.53;;
49858;SDS011;35756;52.346;13.622;2022-10-16T07:35:49;9.48;;;2.85;;
49858;SDS011;35756;52.346;13.622;2022-10-16T07:38:14;3.85;;;2.50;;
49858;SDS011;35756;52.346;13.622;2022-10-16T07:40:40;3.72;;;2.38;;
49858;SDS011;35756;52.346;13.622;2022-10-16T07:43:05;2.95;;;2.30;;
49858;SDS011;35756;52.346;13.622;2022-10-16T07:45:30;4.03;;;2.55;;
49858;SDS011;35756;52.346;13.622;2022-10-16T07:47:55;3.28;;;2.45;;
49858;SDS011;35756;52.346;13.622;2022-10-16T07:50:21;3.08;;;2.30;;
49858;SDS011;35756;52.346;13.622;2022-10-16T07:52:46;3.17;;;2.30;;
49858;SDS011;35756;52.346;13.622;2022-10-16T07:55:11;6.22;;;2.35;;
49858;SDS011;35756;52.346;13.622;2022-10-16T07:57:36;2.70;;;1.90;;
49858;SDS011;35756;52.346;13.622;2022-10-16T08:00:02;3.72;;;1.90;;
49858;SDS011;35756;52.346;13.622;2022-10-16T08:02:28;2.53;;;2.00;;
49858;SDS011;35756;52.346;13.622;2022-10-16T08:04:53;2.60;;;2.10;;
49858;SDS011;35756;52.346;13.622;2022-10-16T08:07:18;2.67;;;2.10;;
49858;SDS011;35756;52.346;13.622;2022-10-16T08:09:44;2.40;;;2.20;;
49858;SDS011;35756;52.346;13.622;2022-10-16T08:12:09;3.10;;;2.58;;
49858;SDS011;35756;52.346;13.622;2022-10-16T08:14:35;2.22;;;2.03;;
49858;SDS011;35756;52.346;13.622;2022-10-16T08:17:01;3.50;;;1.80;;
49858;SDS011;35756;52.346;13.622;2022-10-16T08:19:27;2.30;;;1.80;;
49858;SDS011;35756;52.346;13.622;2022-10-16T08:21:52;1.83;;;1.60;;
49858;SDS011;35756;52.346;13.622;2022-10-16T08:24:18;1.70;;;1.60;;
49858;SDS011;35756;52.346;13.622;2022-10-16T08:26:43;1.70;;;1.60;;
49858;SDS011;35756;52.346;13.622;2022-10-16T08:29:08;2.10;;;1.50;;
49858;SDS011;35756;52.346;13.622;2022-10-16T08:31:33;1.65;;;1.55;;
49858;SDS011;35756;52.346;13.622;2022-10-16T08:33:59;1.42;;;1.23;;
49858;SDS011;35756;52.346;13.622;2022-10-16T08:36:25;5.47;;;1.73;;
49858;SDS011;35756;52.346;13.622;2022-10-16T08:38:50;2.50;;;1.90;;
49858;SDS011;35756;52.346;13.622;2022-10-16T08:41:22;3.42;;;2.42;;
49858;SDS011;35756;52.346;13.622;2022-10-16T08:44:04;1.65;;;1.55;;
49858;SDS011;35756;52.346;13.622;2022-10-16T08:46:46;4.97;;;4.50;;
49858;SDS011;35756;52.346;13.622;2022-10-16T08:49:14;4.60;;;4.20;;
49858;SDS011;35756;52.346;13.622;2022-10-16T08:51:39;3.75;;;2.95;;
49858;SDS011;35756;52.346;13.622;2022-10-16T08:54:12;2.00;;;1.80;;
49858;SDS011;35756;52.346;13.622;2022-10-16T08:56:45;4.25;;;2.67;;
49858;SDS011;35756;52.346;13.622;2022-10-16T08:59:10;3.28;;;2.22;;
49858;SDS011;35756;52.346;13.622;2022-10-16T09:01:37;3.80;;;2.22;;
49858;SDS011;35756;52.346;13.622;2022-10-16T09:04:18;3.08;;;1.90;;
49858;SDS011;35756;52.346;13.622;2022-10-16T09:06:54;3.75;;;3.45;;
49858;SDS011;35756;52.346;13.622;2022-10-16T09:12:05;3.72;;;3.40;;
49858;SDS011;35756;52.346;13.622;2022-10-16T09:14:39;3.77;;;3.57;;
49858;SDS011;35756;52.346;13.622;2022-10-16T09:17:17;4.53;;;4.20;;
49858;SDS011;35756;52.346;13.622;2022-10-16T09:19:51;4.53;;;4.18;;
49858;SDS011;35756;52.346;13.622;2022-10-16T09:22:31;4.72;;;4.43;;
49858;SDS011;35756;52.346;13.622;2022-10-16T09:25:00;4.20;;;3.90;;
49858;SDS011;35756;52.346;13.622;2022-10-16T09:27:35;5.10;;;4.70;;
49858;SDS011;35756;52.346;13.622;2022-10-16T09:30:01;5.22;;;4.80;;
49858;SDS011;35756;52.346;13.622;2022-10-16T09:32:26;5.25;;;4.18;;
49858;SDS011;35756;52.346;13.622;2022-10-16T09:34:53;3.78;;;2.67;;
49858;SDS011;35756;52.346;13.622;2022-10-16T09:37:21;3.35;;;3.10;;
49858;SDS011;35756;52.346;13.622;2022-10-16T09:39:48;5.97;;;5.45;;
49858;SDS011;35756;52.346;13.622;2022-10-16T09:42:16;5.50;;;5.10;;
49858;SDS011;35756;52.346;13.622;2022-10-16T09:44:42;9.60;;;8.98;;
49858;SDS011;35756;52.346;13.622;2022-10-16T09:47:15;5.72;;;5.28;;
49858;SDS011;35756;52.346;13.622;2022-10-16T09:49:56;8.20;;;7.68;;
49858;SDS011;35756;52.346;13.622;2022-10-16T09:52:27;7.53;;;7.07;;
49858;SDS011;35756;52.346;13.622;2022-10-16T09:54:54;10.80;;;9.98;;
49858;SDS011;35756;52.346;13.622;2022-10-16T09:57:20;9.63;;;8.98;;
49858;SDS011;35756;52.346;13.622;2022-10-16T09:59:53;10.05;;;9.45;;
49858;SDS011;35756;52.346;13.622;2022-10-16T10:02:20;5.57;;;5.07;;
49858;SDS011;35756;52.346;13.622;2022-10-16T10:04:53;9.93;;;9.38;;
49858;SDS011;35756;52.346;13.622;2022-10-16T10:07:39;9.77;;;9.23;;
49858;SDS011;35756;52.346;13.622;2022-10-16T10:10:18;10.07;;;9.50;;
49858;SDS011;35756;52.346;13.622;2022-10-16T10:12:46;9.45;;;8.90;;
49858;SDS011;35756;52.346;13.622;2022-10-16T10:15:11;12.20;;;11.48;;
49858;SDS011;35756;52.346;13.622;2022-10-16T10:17:50;14.02;;;13.02;;
49858;SDS011;35756;52.346;13.622;2022-10-16T10:20:25;21.98;;;20.85;;
49858;SDS011;35756;52.346;13.622;2022-10-16T10:22:55;15.65;;;14.75;;
49858;SDS011;35756;52.346;13.622;2022-10-16T10:37:00;61.47;;;58.53;;
49858;SDS011;35756;52.346;13.622;2022-10-16T10:39:35;102.95;;;98.32;;
49858;SDS011;35756;52.346;13.622;2022-10-16T10:45:02;162.73;;;155.90;;
49858;SDS011;35756;52.346;13.622;2022-10-16T10:47:47;210.50;;;201.38;;
49858;SDS011;35756;52.346;13.622;2022-10-16T10:50:31;124.30;;;118.78;;
49858;SDS011;35756;52.346;13.622;2022-10-16T10:56:00;214.75;;;205.35;;
49858;SDS011;35756;52.346;13.622;2022-10-16T10:58:50;190.73;;;182.27;;
49858;SDS011;35756;52.346;13.622;2022-10-16T11:01:45;84.47;;;80.60;;
49858;SDS011;35756;52.346;13.622;2022-10-16T11:04:23;324.80;;;310.55;;
49858;SDS011;35756;52.346;13.622;2022-10-16T11:07:20;479.83;;;456.80;;
49858;SDS011;35756;52.346;13.622;2022-10-16T11:09:49;250.93;;;239.80;;
49858;SDS011;35756;52.346;13.622;2022-10-16T11:12:18;223.95;;;214.50;;
49858;SDS011;35756;52.346;13.622;2022-10-16T11:15:28;418.63;;;399.70;;
49858;SDS011;35756;52.346;13.622;2022-10-16T11:17:39;560.47;;;531.60;;
49858;SDS011;35756;52.346;13.622;2022-10-16T11:22:48;575.90;;;546.72;;
49858;SDS011;35756;52.346;13.622;2022-10-16T11:25:20;729.38;;;687.47;;
49858;SDS011;35756;52.346;13.622;2022-10-16T11:30:27;812.92;;;764.65;;
49858;SDS011;35756;52.346;13.622;2022-10-16T11:35:53;766.35;;;721.47;;
49858;SDS011;35756;52.346;13.622;2022-10-16T11:38:37;885.42;;;830.65;;
49858;SDS011;35756;52.346;13.622;2022-10-16T11:41:14;894.30;;;837.13;;
49858;SDS011;35756;52.346;13.622;2022-10-16T11:43:52;826.25;;;770.08;;
49858;SDS011;35756;52.346;13.622;2022-10-16T11:46:23;903.25;;;845.80;;
49858;SDS011;35756;52.346;13.622;2022-10-16T11:48:55;938.55;;;875.28;;
49858;SDS011;35756;52.346;13.622;2022-10-16T11:51:28;650.47;;;611.53;;
49858;SDS011;35756;52.346;13.622;2022-10-16T11:54:08;692.05;;;650.03;;
49858;SDS011;35756;52.346;13.622;2022-10-16T11:56:42;455.83;;;429.20;;
49858;SDS011;35756;52.346;13.622;2022-10-16T11:59:24;457.52;;;430.30;;
49858;SDS011;35756;52.346;13.622;2022-10-16T12:04:55;246.25;;;230.98;;
49858;SDS011;35756;52.346;13.622;2022-10-16T12:08:00;293.90;;;276.23;;
49858;SDS011;35756;52.346;13.622;2022-10-16T12:10:31;208.48;;;196.45;;
49858;SDS011;35756;52.346;13.622;2022-10-16T12:13:01;290.17;;;273.42;;
49858;SDS011;35756;52.346;13.622;2022-10-16T12:15:28;355.95;;;335.40;;
49858;SDS011;35756;52.346;13.622;2022-10-16T12:17:55;321.35;;;302.13;;
49858;SDS011;35756;52.346;13.622;2022-10-16T12:22:55;487.00;;;457.67;;
49858;SDS011;35756;52.346;13.622;2022-10-16T12:25:23;455.35;;;428.33;;
49858;SDS011;35756;52.346;13.622;2022-10-16T12:27:53;366.70;;;345.70;;
49858;SDS011;35756;52.346;13.622;2022-10-16T12:30:21;625.40;;;585.88;;
49858;SDS011;35756;52.346;13.622;2022-10-16T12:33:00;319.58;;;303.30;;
49858;SDS011;35756;52.346;13.622;2022-10-16T12:35:32;279.25;;;264.33;;
49858;SDS011;35756;52.346;13.622;2022-10-16T12:38:08;264.48;;;250.02;;
49858;SDS011;35756;52.346;13.622;2022-10-16T12:40:40;443.58;;;410.50;;
49858;SDS011;35756;52.346;13.622;2022-10-16T12:45:44;758.40;;;697.28;;
49858;SDS011;35756;52.346;13.622;2022-10-16T12:48:20;1033.80;;;941.78;;
49858;SDS011;35756;52.346;13.622;2022-10-16T12:50:47;814.95;;;749.45;;
49858;SDS011;35756;52.346;13.622;2022-10-16T12:53:20;799.17;;;736.15;;
49858;SDS011;35756;52.346;13.622;2022-10-16T12:55:56;543.15;;;503.33;;
49858;SDS011;35756;52.346;13.622;2022-10-16T13:04:17;900.10;;;826.25;;
49858;SDS011;35756;52.346;13.622;2022-10-16T13:06:51;820.38;;;749.15;;
49858;SDS011;35756;52.346;13.622;2022-10-16T13:25:42;269.63;;;253.82;;
49858;SDS011;35756;52.346;13.622;2022-10-16T13:28:14;310.58;;;290.67;;
49858;SDS011;35756;52.346;13.622;2022-10-16T13:30:41;343.80;;;321.15;;
49858;SDS011;35756;52.346;13.622;2022-10-16T13:33:19;401.10;;;373.98;;
49858;SDS011;35756;52.346;13.622;2022-10-16T13:35:58;712.03;;;658.22;;
49858;SDS011;35756;52.346;13.622;2022-10-16T13:40:51;476.80;;;443.50;;
49858;SDS011;35756;52.346;13.622;2022-10-16T13:43:17;313.83;;;295.60;;
49858;SDS011;35756;52.346;13.622;2022-10-16T13:45:52;298.13;;;280.95;;
49858;SDS011;35756;52.346;13.622;2022-10-16T13:48:22;350.58;;;330.10;;
49858;SDS011;35756;52.346;13.622;2022-10-16T13:50:58;272.85;;;256.60;;
49858;SDS011;35756;52.346;13.622;2022-10-16T13:53:24;319.52;;;302.25;;
49858;SDS011;35756;52.346;13.622;2022-10-16T13:55:49;295.25;;;278.95;;
49858;SDS011;35756;52.346;13.622;2022-10-16T13:58:15;281.65;;;266.50;;
49858;SDS011;35756;52.346;13.622;2022-10-16T14:00:52;362.35;;;341.45;;
49858;SDS011;35756;52.346;13.622;2022-10-16T14:03:22;354.85;;;334.88;;
49858;SDS011;35756;52.346;13.622;2022-10-16T14:05:58;265.95;;;252.07;;
49858;SDS011;35756;52.346;13.622;2022-10-16T14:08:25;426.35;;;402.20;;
49858;SDS011;35756;52.346;13.622;2022-10-16T14:10:52;253.68;;;239.98;;
49858;SDS011;35756;52.346;13.622;2022-10-16T14:13:24;390.73;;;369.15;;
49858;SDS011;35756;52.346;13.622;2022-10-16T14:15:54;298.40;;;282.42;;
49858;SDS011;35756;52.346;13.622;2022-10-16T14:18:20;369.60;;;349.45;;
49858;SDS011;35756;52.346;13.622;2022-10-16T14:20:48;459.67;;;431.73;;
49858;SDS011;35756;52.346;13.622;2022-10-16T14:23:21;628.80;;;588.60;;
49858;SDS011;35756;52.346;13.622;2022-10-16T14:25:47;298.67;;;281.55;;
49858;SDS011;35756;52.346;13.622;2022-10-16T14:28:17;317.88;;;300.67;;
49858;SDS011;35756;52.346;13.622;2022-10-16T14:30:53;352.02;;;333.17;;
49858;SDS011;35756;52.346;13.622;2022-10-16T14:33:24;313.70;;;295.95;;
49858;SDS011;35756;52.346;13.622;2022-10-16T14:36:00;615.80;;;577.42;;
49858;SDS011;35756;52.346;13.622;2022-10-16T14:38:29;432.38;;;406.95;;
49858;SDS011;35756;52.346;13.622;2022-10-16T14:40:54;653.90;;;611.90;;
49858;SDS011;35756;52.346;13.622;2022-10-16T14:43:29;663.15;;;620.60;;
49858;SDS011;35756;52.346;13.622;2022-10-16T14:45:58;789.65;;;737.22;;
49858;SDS011;35756;52.346;13.622;2022-10-16T14:48:25;628.08;;;588.50;;
49858;SDS011;35756;52.346;13.622;2022-10-16T14:50:50;895.78;;;835.42;;
49858;SDS011;35756;52.346;13.622;2022-10-16T14:53:16;861.47;;;805.30;;
49858;SDS011;35756;52.346;13.622;2022-10-16T14:55:41;893.80;;;833.50;;
49858;SDS011;35756;52.346;13.622;2022-10-16T14:58:17;900.80;;;841.65;;
49858;SDS011;35756;52.346;13.622;2022-10-16T15:00:44;902.75;;;843.03;;
49858;SDS011;35756;52.346;13.622;2022-10-16T15:03:09;926.83;;;866.20;;
49858;SDS011;35756;52.346;13.622;2022-10-16T15:05:35;889.28;;;829.90;;
49858;SDS011;35756;52.346;13.622;2022-10-16T15:08:00;883.25;;;824.60;;
49858;SDS011;35756;52.346;13.622;2022-10-16T15:10:26;910.80;;;851.08;;
49858;SDS011;35756;52.346;13.622;2022-10-16T15:12:52;845.15;;;793.55;;
49858;SDS011;35756;52.346;13.622;2022-10-16T15:17:52;879.33;;;824.13;;
49858;SDS011;35756;52.346;13.622;2022-10-16T15:20:20;810.60;;;762.65;;
49858;SDS011;35756;52.346;13.622;2022-10-16T15:22:46;549.58;;;522.20;;
49858;SDS011;35756;52.346;13.622;2022-10-16T15:25:25;622.88;;;589.80;;
49858;SDS011;35756;52.346;13.622;2022-10-16T15:27:57;541.47;;;515.08;;
49858;SDS011;35756;52.346;13.622;2022-10-16T15:30:23;454.67;;;433.08;;
49858;SDS011;35756;52.346;13.622;2022-10-16T15:32:49;273.75;;;261.40;;
49858;SDS011;35756;52.346;13.622;2022-10-16T15:35:15;278.70;;;266.02;;
49858;SDS011;35756;52.346;13.622;2022-10-16T15:37:40;226.20;;;215.82;;
49858;SDS011;35756;52.346;13.622;2022-10-16T15:40:06;153.32;;;145.13;;
49858;SDS011;35756;52.346;13.622;2022-10-16T15:42:31;119.72;;;113.63;;
49858;SDS011;35756;52.346;13.622;2022-10-16T15:44:57;76.40;;;71.90;;